Galway, Ireland
Current Conditions -  °F | °C
As of 12:30 PM on Tuesday 27 Jan 2015 (Local Time) from EINN Reporting Station
Broken Clouds Broken Clouds  
Wind Chill: 42°   Ceiling: 2600
Heat Index: 46°   Visibility: 6mi
Dew Point: 43°   Wind: 9mph
Humidity: 87%   Direction: 190°S
Pressure: 30.33"   Gusts: NA
Location:  53.28°N, 9.06°W
Report Text: EINN 271230Z 19008KT 9999 FEW009 BKN026 08/06 Q1027 NOSIG
Loading
Personal Weather Stations






























Interactive Weather Map New forecast layout! Learn more

10-Day Weather Forecast

Advertisements
Track Severe Weather on mobile